Time;durP1;ratioP1;P1;durP2;ratioP2;P2;SDS_P1;SDS_P2;PMS_P1;PMS_P2;Temp;Humidity;BMP_temperature;BMP_pressure;BME280_temperature;BME280_humidity;BME280_pressure;Samples;Min_cycle;Max_cycle;Signal;HPM_P1;HPM_P2
2023/04/25 00:01:13;;;;;;;9.35;3.70;;;5.70;99.90;;;;;;5050404;28;20022;-74
2023/04/25 00:03:39;;;;;;;9.60;3.70;;;5.80;99.90;;;;;;5050876;28;20023;-75
2023/04/25 00:06:06;;;;;;;10.13;4.15;;;5.80;99.90;;;;;;5050162;28;20021;-74
2023/04/25 00:08:32;;;;;;;11.50;3.20;;;5.80;99.90;;;;;;5050890;28;20021;-74
2023/04/25 00:10:58;;;;;;;8.98;4.00;;;5.80;99.90;;;;;;5050436;28;20025;-73
2023/04/25 00:13:25;;;;;;;8.07;3.67;;;5.80;99.90;;;;;;5050012;28;20025;-74
2023/04/25 00:15:52;;;;;;;12.85;4.53;;;5.80;99.90;;;;;;5050626;28;20028;-73
2023/04/25 00:18:19;;;;;;;12.60;4.50;;;5.80;99.90;;;;;;5050223;28;20048;-73
2023/04/25 00:20:46;;;;;;;12.73;4.68;;;5.80;99.90;;;;;;5049220;28;20021;-75
2023/04/25 00:23:17;;;;;;;11.20;4.13;;;5.80;99.90;;;;;;5050098;28;20128;-73
2023/04/25 00:25:50;;;;;;;11.95;4.50;;;5.70;99.90;;;;;;5050555;28;20028;-73
2023/04/25 00:28:15;;;;;;;;;;;5.70;99.90;;;;;;5050651;28;20450;-74
2023/04/25 00:30:42;;;;;;;5.65;3.00;;;5.70;99.90;;;;;;5050530;28;19904;-73
2023/04/25 00:33:08;;;;;;;3.10;1.83;;;5.70;99.90;;;;;;5049993;28;20021;-74
2023/04/25 00:35:34;;;;;;;4.78;1.88;;;5.80;99.90;;;;;;5050429;28;20025;-73
2023/04/25 00:38:00;;;;;;;2.65;2.40;;;5.80;99.90;;;;;;5050222;28;20028;-74
2023/04/25 00:40:26;;;;;;;2.50;1.85;;;5.80;99.90;;;;;;5049741;28;20025;-74
2023/04/25 00:42:53;;;;;;;1.98;1.75;;;5.80;99.90;;;;;;5049975;28;20036;-74
2023/04/25 00:45:19;;;;;;;7.85;3.25;;;5.80;99.90;;;;;;5050134;28;20021;-74
2023/04/25 00:47:45;;;;;;;8.27;2.90;;;5.80;99.90;;;;;;5050391;28;20052;-75
2023/04/25 00:50:12;;;;;;;10.60;3.53;;;5.90;99.90;;;;;;5049989;28;20032;-74
2023/04/25 00:52:40;;;;;;;4.80;2.08;;;5.90;99.90;;;;;;5050264;28;20024;-73
2023/04/25 00:55:07;;;;;;;4.13;2.03;;;5.90;99.90;;;;;;5050268;28;20032;-74
2023/04/25 00:57:33;;;;;;;3.28;1.65;;;5.90;99.90;;;;;;5049940;28;20454;-73
2023/04/25 00:59:59;;;;;;;3.72;1.88;;;5.90;99.90;;;;;;5050514;28;20052;-73
2023/04/25 01:02:26;;;;;;;4.00;1.73;;;5.90;99.90;;;;;;5050271;28;20025;-74
2023/04/25 01:04:53;;;;;;;3.10;1.55;;;5.90;99.90;;;;;;5050643;28;20158;-73
2023/04/25 01:07:19;;;;;;;5.65;1.80;;;6.00;99.90;;;;;;5050025;28;20025;-74
2023/04/25 01:09:46;;;;;;;3.35;1.88;;;6.00;99.90;;;;;;5053582;28;20048;-73
2023/04/25 01:12:12;;;;;;;2.80;2.10;;;6.00;99.90;;;;;;5053949;28;20049;-74
2023/04/25 01:14:38;;;;;;;2.58;2.00;;;6.00;99.90;;;;;;5054246;28;20021;-74
2023/04/25 01:17:04;;;;;;;6.20;2.35;;;6.00;99.90;;;;;;5053837;28;20408;-74
2023/04/25 01:19:30;;;;;;;3.88;2.25;;;6.10;99.90;;;;;;5052110;28;20024;-75
2023/04/25 01:21:56;;;;;;;2.15;1.75;;;6.00;99.90;;;;;;5053848;28;20362;-75
2023/04/25 01:24:22;;;;;;;3.15;2.25;;;6.10;99.90;;;;;;5053573;28;20049;-73
2023/04/25 01:26:52;;;;;;;3.50;2.45;;;6.10;99.90;;;;;;5053547;28;20025;-74
2023/04/25 01:29:20;;;;;;;2.78;2.40;;;6.10;99.90;;;;;;5053344;28;20033;-74
2023/04/25 01:31:46;;;;;;;2.22;2.08;;;6.00;99.90;;;;;;5052355;28;20028;-74
2023/04/25 01:34:13;;;;;;;5.57;2.65;;;6.00;99.90;;;;;;5053165;28;20473;-74
2023/04/25 01:36:39;;;;;;;4.38;2.60;;;6.00;99.90;;;;;;5053753;28;20029;-75
2023/04/25 01:39:05;;;;;;;3.90;2.55;;;6.00;99.90;;;;;;5053567;28;20063;-73
2023/04/25 01:41:31;;;;;;;3.60;2.40;;;5.90;99.90;;;;;;5052947;28;20091;-73
2023/04/25 01:43:57;;;;;;;5.35;3.28;;;5.90;99.90;;;;;;5053523;28;20446;-73
2023/04/25 01:46:23;;;;;;;3.65;2.58;;;5.80;99.90;;;;;;5053021;28;20029;-73
2023/04/25 01:48:49;;;;;;;8.98;4.40;;;5.70;99.90;;;;;;5053564;28;20094;-73
2023/04/25 01:51:15;;;;;;;7.53;4.15;;;5.70;99.90;;;;;;5052974;28;20042;-73
2023/04/25 01:53:42;;;;;;;7.93;5.00;;;5.60;99.90;;;;;;5053651;28;20108;-74
2023/04/25 01:56:08;;;;;;;7.85;4.78;;;5.50;99.90;;;;;;5053712;28;20025;-74
2023/04/25 01:58:33;;;;;;;10.07;6.00;;;5.40;99.90;;;;;;5053023;28;20035;-74
2023/04/25 02:00:59;;;;;;;6.40;4.88;;;5.40;99.90;;;;;;5053172;28;20475;-74
2023/04/25 02:03:25;;;;;;;8.13;5.05;;;5.40;99.90;;;;;;5052774;28;20021;-74
2023/04/25 02:05:51;;;;;;;8.10;4.70;;;5.30;99.90;;;;;;5053196;28;20431;-74
2023/04/25 02:08:17;;;;;;;5.93;4.20;;;5.20;99.90;;;;;;5052685;28;20364;-74
2023/04/25 02:10:43;;;;;;;7.68;4.15;;;5.10;99.90;;;;;;5053134;28;20029;-74
2023/04/25 02:13:09;;;;;;;7.63;3.95;;;5.00;99.90;;;;;;5052749;28;20174;-74
2023/04/25 02:15:35;;;;;;;7.03;4.55;;;5.00;99.90;;;;;;5052401;28;20155;-74
2023/04/25 02:18:01;;;;;;;6.18;3.63;;;4.90;99.90;;;;;;5052922;28;20081;-75
2023/04/25 02:20:28;;;;;;;7.63;4.18;;;4.80;99.90;;;;;;5051245;28;20074;-75
2023/04/25 02:22:54;;;;;;;7.72;4.45;;;4.80;99.90;;;;;;5052872;28;20120;-75
2023/04/25 02:25:20;;;;;;;6.70;4.57;;;4.70;99.90;;;;;;5052797;28;20150;-75
2023/04/25 02:27:47;;;;;;;8.18;4.82;;;4.70;99.90;;;;;;5053738;28;20126;-75
2023/04/25 02:30:13;;;;;;;8.10;5.32;;;4.70;99.90;;;;;;5052940;28;20024;-75
2023/04/25 02:32:40;;;;;;;7.28;4.88;;;4.60;99.90;;;;;;5053259;28;20461;-74
2023/04/25 02:35:07;;;;;;;7.72;5.35;;;4.60;99.90;;;;;;5052550;28;20021;-74
2023/04/25 02:37:34;;;;;;;9.65;5.63;;;4.60;99.90;;;;;;5051933;28;20342;-74
2023/04/25 02:40:00;;;;;;;7.90;5.30;;;4.50;99.90;;;;;;5052337;28;20021;-74
2023/04/25 02:42:27;;;;;;;8.38;6.03;;;4.50;99.90;;;;;;5051967;28;20029;-75
2023/04/25 02:44:52;;;;;;;8.82;6.32;;;4.60;99.90;;;;;;5052481;28;20039;-75
2023/04/25 02:47:18;;;;;;;9.50;5.93;;;4.60;99.90;;;;;;5051762;28;20025;-74
2023/04/25 02:49:45;;;;;;;8.63;6.00;;;4.60;99.90;;;;;;5051829;28;20394;-74
2023/04/25 02:52:11;;;;;;;10.90;6.22;;;4.60;99.90;;;;;;5052171;28;20416;-73
2023/04/25 02:54:37;;;;;;;9.85;6.85;;;4.60;99.90;;;;;;5051672;28;20057;-74
2023/04/25 02:57:03;;;;;;;11.70;6.95;;;4.60;99.90;;;;;;5052031;28;20024;-74
2023/04/25 02:59:29;;;;;;;11.18;6.40;;;4.60;99.90;;;;;;5051844;28;20410;-73
2023/04/25 03:01:54;;;;;;;9.82;6.78;;;4.60;99.90;;;;;;5051736;28;20025;-74
2023/04/25 03:04:20;;;;;;;8.32;5.88;;;4.60;99.90;;;;;;5051180;28;20039;-74
2023/04/25 03:06:46;;;;;;;7.05;4.93;;;4.60;99.90;;;;;;5051555;28;20028;-74
2023/04/25 03:09:12;;;;;;;6.80;5.32;;;4.50;99.90;;;;;;5051756;28;20025;-73
2023/04/25 03:11:41;;;;;;;8.90;5.60;;;4.50;99.90;;;;;;5051239;28;20335;-74
2023/04/25 03:14:06;;;;;;;8.68;5.60;;;4.40;99.90;;;;;;5051715;28;20029;-74
2023/04/25 03:16:32;;;;;;;8.77;6.38;;;4.50;99.90;;;;;;5051142;28;20028;-74
2023/04/25 03:18:58;;;;;;;9.43;6.10;;;4.40;99.90;;;;;;5051143;28;20401;-74
2023/04/25 03:21:24;;;;;;;10.55;6.82;;;4.40;99.90;;;;;;5050922;28;20112;-73
2023/04/25 03:23:49;;;;;;;10.45;6.63;;;4.30;99.90;;;;;;5049910;28;20056;-74
2023/04/25 03:26:15;;;;;;;7.63;6.10;;;4.30;99.90;;;;;;5050778;28;20017;-76
2023/04/25 03:28:41;;;;;;;8.68;5.90;;;4.20;99.90;;;;;;5051481;28;20036;-75
2023/04/25 03:31:07;;;;;;;12.25;6.88;;;4.20;99.90;;;;;;5051272;28;20462;-75
2023/04/25 03:33:33;;;;;;;9.25;5.90;;;4.20;99.90;;;;;;5050933;28;20021;-74
2023/04/25 03:35:59;;;;;;;8.73;6.38;;;4.10;99.90;;;;;;5051240;28;20361;-74
2023/04/25 03:38:24;;;;;;;8.48;5.28;;;4.20;99.90;;;;;;5050960;28;20029;-74
2023/04/25 03:40:51;;;;;;;9.90;5.97;;;4.20;99.90;;;;;;5050869;28;20356;-74
2023/04/25 03:43:17;;;;;;;10.20;6.03;;;4.20;99.90;;;;;;5050423;28;20097;-75
2023/04/25 03:45:43;;;;;;;7.82;5.95;;;4.10;99.90;;;;;;5051787;28;20484;-73
2023/04/25 03:48:08;;;;;;;9.55;6.43;;;4.10;99.90;;;;;;5051405;28;20423;-74
2023/04/25 03:50:35;;;;;;;8.15;6.07;;;4.00;99.90;;;;;;5050755;28;20114;-73
2023/04/25 03:53:00;;;;;;;9.50;5.78;;;3.90;99.90;;;;;;5051235;28;20124;-73
2023/04/25 03:55:26;;;;;;;9.00;6.28;;;3.90;99.90;;;;;;5050393;28;20469;-73
2023/04/25 03:57:52;;;;;;;9.40;6.35;;;3.80;99.90;;;;;;5051312;28;20028;-73
2023/04/25 04:00:18;;;;;;;9.18;6.63;;;3.80;99.90;;;;;;5050572;28;20021;-76
2023/04/25 04:02:43;;;;;;;11.70;6.20;;;3.70;99.90;;;;;;5051067;28;20083;-74
2023/04/25 04:05:09;;;;;;;13.32;6.40;;;3.70;99.90;;;;;;5051082;28;20075;-74
2023/04/25 04:07:39;;;;;;;8.73;5.97;;;3.70;99.90;;;;;;5050594;28;20021;-73
2023/04/25 04:10:07;;;;;;;11.15;6.00;;;3.60;99.90;;;;;;5051041;28;20091;-73
2023/04/25 04:12:33;;;;;;;8.73;6.30;;;3.60;99.90;;;;;;5050579;28;20339;-74
2023/04/25 04:14:59;;;;;;;12.38;6.20;;;3.50;99.90;;;;;;5051345;28;20025;-74
2023/04/25 04:17:25;;;;;;;13.18;6.13;;;3.50;99.90;;;;;;5050571;28;20369;-75
2023/04/25 04:19:50;;;;;;;10.18;6.18;;;3.50;99.90;;;;;;5050320;28;20028;-73
2023/04/25 04:22:16;;;;;;;9.80;7.10;;;3.50;99.90;;;;;;5050779;28;20116;-73
2023/04/25 04:24:46;;;;;;;10.00;6.60;;;3.40;99.90;;;;;;5050079;28;20066;-73
2023/04/25 04:27:12;;;;;;;11.50;7.60;;;3.40;99.90;;;;;;5050444;28;20359;-73
2023/04/25 04:29:38;;;;;;;10.85;7.38;;;3.30;99.90;;;;;;5050363;28;20057;-73
2023/04/25 04:32:04;;;;;;;12.90;7.10;;;3.40;99.90;;;;;;5050925;28;20217;-73
2023/04/25 04:34:30;;;;;;;15.52;7.68;;;3.30;99.90;;;;;;5050371;28;20158;-73
2023/04/25 04:36:56;;;;;;;15.85;8.15;;;3.30;99.90;;;;;;5050791;28;20318;-73
2023/04/25 04:39:22;;;;;;;10.48;7.03;;;3.20;99.90;;;;;;5050132;28;20115;-74
2023/04/25 04:41:48;;;;;;;9.68;6.80;;;3.20;99.90;;;;;;5050506;28;20238;-73
2023/04/25 04:44:14;;;;;;;11.70;6.80;;;3.20;99.90;;;;;;5053198;28;20366;-73
2023/04/25 04:46:44;;;;;;;14.88;8.30;;;3.20;99.90;;;;;;5053996;28;20269;-73
2023/04/25 04:49:10;;;;;;;13.20;7.57;;;3.10;99.90;;;;;;5054020;28;20178;-73
2023/04/25 04:51:37;;;;;;;13.35;7.55;;;3.00;99.90;;;;;;5053965;28;20028;-72
2023/04/25 04:54:03;;;;;;;12.77;7.47;;;3.00;99.90;;;;;;5053900;28;20029;-74
2023/04/25 04:56:32;;;;;;;13.13;7.28;;;2.90;99.90;;;;;;5053896;28;20055;-74
2023/04/25 04:58:58;;;;;;;12.52;7.72;;;2.90;99.90;;;;;;5054421;28;20075;-74
2023/04/25 05:01:25;;;;;;;11.93;7.75;;;2.90;99.90;;;;;;5053751;28;20029;-74
2023/04/25 05:03:51;;;;;;;12.48;7.50;;;2.80;99.90;;;;;;5054377;28;20113;-74
2023/04/25 05:06:18;;;;;;;11.07;7.57;;;2.80;99.90;;;;;;5054081;28;20135;-74
2023/04/25 05:08:44;;;;;;;11.27;7.95;;;2.70;99.90;;;;;;5052275;28;20405;-74
2023/04/25 05:11:10;;;;;;;13.73;8.65;;;2.70;99.90;;;;;;5054670;28;20094;-74
2023/04/25 05:13:36;;;;;;;15.43;8.15;;;2.70;99.90;;;;;;5053802;28;20041;-74
2023/04/25 05:16:02;;;;;;;16.38;8.70;;;2.60;99.90;;;;;;5054021;28;20122;-74
2023/04/25 05:18:28;;;;;;;12.57;8.38;;;2.60;99.90;;;;;;5053628;28;20115;-75
2023/04/25 05:20:54;;;;;;;11.05;7.45;;;2.60;99.90;;;;;;5054319;28;20021;-74
2023/04/25 05:23:19;;;;;;;14.68;9.55;;;2.60;99.90;;;;;;5054014;28;20060;-74
2023/04/25 05:25:45;;;;;;;17.00;9.73;;;2.60;99.90;;;;;;5053561;28;20036;-74
2023/04/25 05:28:12;;;;;;;23.10;10.90;;;2.60;99.90;;;;;;5053571;28;20117;-74
2023/04/25 05:30:39;;;;;;;25.77;11.55;;;2.60;99.90;;;;;;5053109;28;20048;-74
2023/04/25 05:33:04;;;;;;;14.43;8.40;;;2.50;99.90;;;;;;5053570;28;20021;-74
2023/04/25 05:35:30;;;;;;;15.95;9.88;;;2.60;99.90;;;;;;5052986;28;20017;-74
2023/04/25 05:37:56;;;;;;;16.40;9.35;;;2.60;99.90;;;;;;5053499;28;20021;-74
2023/04/25 05:40:22;;;;;;;15.68;8.95;;;2.70;99.90;;;;;;5053345;28;20027;-74
2023/04/25 05:42:47;;;;;;;17.75;9.35;;;2.70;99.90;;;;;;5052898;28;20472;-74
2023/04/25 05:45:13;;;;;;;27.42;11.60;;;2.90;99.90;;;;;;5053213;28;20017;-74
2023/04/25 05:47:39;;;;;;;20.70;10.38;;;3.10;99.90;;;;;;5052369;28;20025;-74
2023/04/25 05:50:05;;;;;;;15.77;8.82;;;3.20;99.90;;;;;;5051750;28;20407;-74
2023/04/25 05:52:31;;;;;;;20.05;11.27;;;3.30;99.90;;;;;;5052719;28;20119;-74
2023/04/25 05:54:57;;;;;;;20.33;10.63;;;3.50;99.90;;;;;;5051840;28;20403;-74
2023/04/25 05:57:24;;;;;;;24.98;11.25;;;3.60;99.90;;;;;;5053191;28;20116;-73
2023/04/25 05:59:50;;;;;;;30.65;13.52;;;3.80;99.90;;;;;;5053012;28;20025;-73
2023/04/25 06:02:17;;;;;;;29.73;14.88;;;4.00;99.90;;;;;;5052604;28;20081;-73
2023/04/25 06:04:42;;;;;;;22.92;12.73;;;4.10;99.90;;;;;;5052297;28;20021;-74
2023/04/25 06:07:08;;;;;;;29.42;14.40;;;4.20;99.90;;;;;;5052595;28;20024;-74
2023/04/25 06:09:34;;;;;;;29.83;14.15;;;4.40;99.90;;;;;;5052360;28;20421;-74
2023/04/25 06:12:01;;;;;;;19.50;10.55;;;4.50;99.90;;;;;;5052751;28;20020;-73
2023/04/25 06:14:27;;;;;;;24.80;11.23;;;4.50;99.90;;;;;;5052281;28;20100;-74
2023/04/25 06:16:53;;;;;;;16.52;10.00;;;4.60;99.90;;;;;;5052845;28;20124;-73
2023/04/25 06:19:18;;;;;;;16.77;9.00;;;4.70;99.90;;;;;;5052292;28;20028;-74
2023/04/25 06:21:44;;;;;;;19.48;9.73;;;4.80;99.90;;;;;;5053597;28;20032;-75
2023/04/25 06:24:10;;;;;;;20.98;10.70;;;5.00;99.90;;;;;;5054474;28;20040;-76
2023/04/25 06:26:36;;;;;;;18.38;9.65;;;5.10;99.90;;;;;;5053033;28;20029;-73
2023/04/25 06:29:02;;;;;;;19.70;9.00;;;5.20;99.90;;;;;;5052775;28;20103;-73
2023/04/25 06:31:28;;;;;;;18.52;8.60;;;5.30;99.90;;;;;;5052633;28;20017;-77
2023/04/25 06:33:54;;;;;;;16.98;7.63;;;5.40;99.90;;;;;;5053190;28;20051;-74
2023/04/25 06:36:27;;;;;;;11.05;7.00;;;5.50;99.90;;;;;;5052829;28;20033;-74
2023/04/25 06:38:53;;;;;;;;;;;5.70;99.90;;;;;;5053082;28;20393;-74
2023/04/25 06:41:19;;;;;;;9.90;7.28;;;5.70;99.90;;;;;;5052375;28;19944;-74
2023/04/25 06:43:45;;;;;;;9.70;6.75;;;5.70;99.90;;;;;;5052165;28;20362;-74
2023/04/25 06:46:11;;;;;;;14.05;6.97;;;5.90;99.90;;;;;;5052349;28;20020;-75
2023/04/25 06:48:37;;;;;;;11.57;6.85;;;6.10;99.90;;;;;;5051924;28;20035;-75
2023/04/25 06:51:03;;;;;;;12.02;6.93;;;6.10;99.90;;;;;;5051967;28;20108;-75
2023/04/25 06:53:28;;;;;;;10.10;6.50;;;6.30;99.90;;;;;;5051587;28;20354;-75
2023/04/25 06:55:54;;;;;;;9.75;6.32;;;6.40;99.90;;;;;;5051695;28;20032;-74
2023/04/25 06:58:20;;;;;;;10.15;6.15;;;6.60;99.90;;;;;;5051683;28;20036;-73
2023/04/25 07:00:46;;;;;;;9.60;6.60;;;6.70;99.90;;;;;;5051057;28;20028;-74
2023/04/25 07:03:11;;;;;;;11.38;6.32;;;6.70;99.90;;;;;;5051667;28;20395;-74
2023/04/25 07:05:37;;;;;;;10.88;6.03;;;6.70;99.90;;;;;;5050961;28;20074;-75
2023/04/25 07:08:03;;;;;;;9.63;6.20;;;6.50;99.90;;;;;;5051429;28;20146;-75
2023/04/25 07:10:29;;;;;;;10.48;6.50;;;6.50;99.90;;;;;;5049840;28;20040;-77
2023/04/25 07:12:55;;;;;;;8.65;6.28;;;6.40;99.90;;;;;;5051602;28;20115;-74
2023/04/25 07:15:21;;;;;;;11.75;6.60;;;6.40;99.90;;;;;;5051160;28;20056;-74
2023/04/25 07:17:46;;;;;;;11.77;6.78;;;6.40;99.90;;;;;;5051221;28;20050;-74
2023/04/25 07:20:12;;;;;;;9.52;6.32;;;6.70;99.90;;;;;;5051378;28;20059;-74
2023/04/25 07:22:38;;;;;;;10.18;5.97;;;6.80;99.90;;;;;;5050649;28;20318;-73
2023/04/25 07:25:05;;;;;;;9.85;6.50;;;6.90;99.90;;;;;;5051408;28;20020;-73
2023/04/25 07:27:31;;;;;;;8.30;5.30;;;7.00;99.90;;;;;;5050573;28;20029;-75
2023/04/25 07:29:57;;;;;;;8.30;5.53;;;7.00;99.90;;;;;;5051326;28;20143;-74
2023/04/25 07:32:23;;;;;;;11.32;5.35;;;7.00;99.90;;;;;;5051129;28;20025;-74
2023/04/25 07:34:48;;;;;;;11.80;6.28;;;7.10;99.90;;;;;;5050644;28;20025;-73
2023/04/25 07:37:15;;;;;;;10.90;6.40;;;7.10;99.90;;;;;;5051308;28;20025;-73
2023/04/25 07:39:40;;;;;;;10.90;5.18;;;7.20;99.90;;;;;;5050708;28;20104;-74
2023/04/25 07:42:07;;;;;;;6.82;5.35;;;7.20;99.90;;;;;;5051032;28;20071;-73
2023/04/25 07:44:39;;;;;;;9.18;5.22;;;7.30;99.90;;;;;;5050750;28;20025;-74
2023/04/25 07:47:10;;;;;;;9.13;5.20;;;7.40;99.90;;;;;;5051180;28;20025;-75
2023/04/25 07:49:36;;;;;;;8.98;5.15;;;7.40;99.90;;;;;;5050848;28;20032;-74
2023/04/25 07:52:03;;;;;;;8.13;5.15;;;7.40;99.90;;;;;;5049665;28;20357;-74
2023/04/25 07:54:29;;;;;;;8.27;4.43;;;7.30;99.90;;;;;;5050888;28;20098;-74
2023/04/25 07:56:55;;;;;;;11.70;4.85;;;7.30;99.90;;;;;;5050330;28;20370;-73
2023/04/25 07:59:21;;;;;;;8.18;4.35;;;7.20;99.90;;;;;;5050134;28;20025;-74
2023/04/25 08:01:47;;;;;;;12.98;5.05;;;7.20;99.90;;;;;;5050313;28;20020;-73
2023/04/25 08:04:13;;;;;;;10.38;5.50;;;7.20;99.90;;;;;;5050572;28;20025;-73
2023/04/25 08:06:40;;;;;;;10.75;5.30;;;7.10;99.90;;;;;;5050377;28;20393;-74
2023/04/25 08:09:06;;;;;;;7.30;4.65;;;7.20;99.90;;;;;;5050755;28;20159;-73
2023/04/25 08:11:31;;;;;;;8.80;4.63;;;7.20;99.90;;;;;;5050567;28;20092;-73
2023/04/25 08:13:57;;;;;;;8.02;4.35;;;7.20;99.90;;;;;;5050451;28;20025;-74
2023/04/25 08:16:23;;;;;;;7.05;4.15;;;7.30;99.90;;;;;;5050516;28;20032;-74
2023/04/25 08:18:50;;;;;;;8.30;3.63;;;7.50;99.90;;;;;;5052450;28;20021;-74
2023/04/25 08:21:16;;;;;;;7.15;3.88;;;7.60;99.90;;;;;;5055011;28;20113;-74
2023/04/25 08:23:41;;;;;;;8.80;3.53;;;7.80;99.90;;;;;;5054145;28;20552;-73
2023/04/25 08:26:07;;;;;;;8.10;3.17;;;8.00;99.90;;;;;;5054779;28;20056;-74
2023/04/25 08:28:33;;;;;;;8.95;4.05;;;8.10;99.90;;;;;;5054706;28;20021;-74
2023/04/25 08:30:59;;;;;;;9.30;4.28;;;8.30;99.90;;;;;;5054305;28;20029;-74
2023/04/25 08:33:25;;;;;;;7.82;4.28;;;8.50;99.90;;;;;;5053248;28;20445;-74
2023/04/25 08:35:52;;;;;;;8.73;4.18;;;8.70;99.90;;;;;;5053771;28;20323;-74
2023/04/25 08:38:19;;;;;;;9.77;4.30;;;8.70;99.90;;;;;;5054259;28;20434;-73
2023/04/25 08:40:50;;;;;;;8.70;4.30;;;8.90;99.90;;;;;;5054067;28;20122;-73
2023/04/25 08:43:18;;;;;;;8.63;4.10;;;9.00;99.90;;;;;;5054629;28;20374;-74
2023/04/25 08:45:45;;;;;;;8.75;4.10;;;9.20;99.90;;;;;;5054509;28;20032;-74
2023/04/25 08:48:16;;;;;;;10.45;3.97;;;9.30;99.90;;;;;;5054769;28;20033;-74
2023/04/25 08:50:53;;;;;;;11.93;4.53;;;9.40;99.90;;;;;;5054246;28;20033;-74
2023/04/25 08:53:28;;;;;;;11.90;3.75;;;9.50;99.90;;;;;;5054655;28;20025;-72
2023/04/25 08:55:55;;;;;;;9.75;4.07;;;9.50;99.90;;;;;;5053951;28;20074;-74
2023/04/25 08:58:21;;;;;;;9.82;4.30;;;9.40;99.90;;;;;;5054486;28;20028;-73
2023/04/25 09:00:48;;;;;;;6.82;4.22;;;9.30;99.90;;;;;;5053622;28;20040;-73
2023/04/25 09:03:14;;;;;;;13.73;4.95;;;9.20;99.90;;;;;;5054842;28;20021;-73
2023/04/25 09:05:41;;;;;;;10.45;5.18;;;9.00;99.90;;;;;;5052664;28;20413;-73
2023/04/25 09:08:07;;;;;;;14.38;5.53;;;9.00;99.90;;;;;;5054162;28;20082;-73
2023/04/25 09:10:33;;;;;;;12.75;5.25;;;9.20;99.90;;;;;;5054108;28;20025;-73
2023/04/25 09:13:14;;;;;;;14.00;5.38;;;9.40;99.90;;;;;;5054190;28;20112;-73
2023/04/25 09:15:54;;;;;;;14.15;5.88;;;9.60;99.90;;;;;;5053834;28;20028;-74
2023/04/25 09:18:28;;;;;;;9.88;5.63;;;9.70;99.90;;;;;;5053993;28;20315;-74
2023/04/25 09:20:55;;;;;;;9.48;5.07;;;10.00;99.90;;;;;;5053369;28;20016;-73
2023/04/25 09:23:23;;;;;;;6.28;4.07;;;10.20;99.90;;;;;;5053520;28;20128;-73
2023/04/25 09:25:52;;;;;;;8.07;5.20;;;10.30;99.90;;;;;;5053352;28;20095;-73
2023/04/25 09:28:25;;;;;;;9.73;4.50;;;10.20;99.90;;;;;;5053782;28;20025;-74
2023/04/25 09:30:56;;;;;;;9.30;4.45;;;10.40;99.90;;;;;;5051374;28;20096;-73
2023/04/25 09:33:33;;;;;;;4.20;2.30;;;10.70;99.90;;;;;;5053431;28;20116;-74
2023/04/25 09:36:17;;;;;;;4.90;2.00;;;11.00;99.90;;;;;;5051577;28;20071;-73
2023/04/25 09:38:46;;;;;;;5.53;1.98;;;11.10;99.90;;;;;;5052536;28;20028;-73
2023/04/25 09:41:12;;;;;;;6.28;2.60;;;11.20;99.90;;;;;;5053028;28;20455;-73
2023/04/25 09:43:39;;;;;;;4.47;1.85;;;11.30;99.90;;;;;;5053416;28;20103;-73
2023/04/25 09:46:09;;;;;;;6.97;2.10;;;11.40;99.90;;;;;;5053321;28;20138;-73
2023/04/25 09:48:35;;;;;;;4.85;2.28;;;11.30;99.90;;;;;;5053208;28;20033;-72
2023/04/25 09:51:08;;;;;;;4.90;2.15;;;11.30;99.90;;;;;;5052782;28;20414;-73
2023/04/25 09:53:35;;;;;;;;;;;11.40;99.90;;;;;;5053487;28;20021;-74
2023/04/25 09:56:07;;;;;;;7.88;2.42;;;11.20;99.90;;;;;;5052499;28;19907;-73
2023/04/25 09:58:33;;;;;;;5.17;2.10;;;11.10;99.90;;;;;;5053138;28;20036;-74
2023/04/25 10:01:07;;;;;;;7.60;2.38;;;11.00;99.90;;;;;;5052084;28;20160;-74
2023/04/25 10:03:35;;;;;;;9.68;2.53;;;11.00;99.90;;;;;;5052971;28;20029;-74
2023/04/25 10:06:02;;;;;;;5.00;2.20;;;11.00;99.90;;;;;;5052209;28;20028;-74
2023/04/25 10:08:33;;;;;;;6.72;1.98;;;10.90;99.90;;;;;;5053127;28;20050;-74
2023/04/25 10:11:06;;;;;;;6.65;2.17;;;11.00;99.90;;;;;;5052266;28;20079;-74
2023/04/25 10:13:33;;;;;;;6.63;2.05;;;11.00;99.90;;;;;;5053000;28;20479;-75
2023/04/25 10:16:04;;;;;;;8.25;1.88;;;11.00;99.90;;;;;;5052353;28;20092;-74
2023/04/25 10:18:32;;;;;;;7.60;2.45;;;11.00;99.90;;;;;;5052722;28;20064;-74
2023/04/25 10:21:06;;;;;;;7.10;1.92;;;10.70;99.90;;;;;;5052215;28;20043;-74
2023/04/25 10:23:34;;;;;;;6.85;2.55;;;10.70;99.90;;;;;;5052280;28;20373;-74
2023/04/25 10:26:00;;;;;;;4.72;2.13;;;10.70;99.90;;;;;;5052034;28;20036;-73
2023/04/25 10:28:26;;;;;;;5.88;2.08;;;10.70;99.90;;;;;;5052443;28;20512;-74
2023/04/25 10:30:58;;;;;;;9.10;2.00;;;10.90;99.90;;;;;;5051701;28;20021;-73
2023/04/25 10:33:51;;;;;;;3.75;1.90;;;10.80;99.90;;;;;;5052415;28;20036;-74
2023/04/25 10:36:22;;;;;;;7.47;2.03;;;10.70;99.90;;;;;;5050491;28;20032;-73
2023/04/25 10:38:50;;;;;;;5.05;2.00;;;10.70;99.90;;;;;;5051941;28;20107;-75
2023/04/25 10:41:18;;;;;;;3.88;2.15;;;10.60;99.90;;;;;;5051860;28;20024;-75
2023/04/25 10:43:46;;;;;;;3.13;1.77;;;10.40;99.90;;;;;;5051947;28;20036;-74
2023/04/25 10:46:14;;;;;;;3.83;1.60;;;10.60;99.90;;;;;;5052378;28;20021;-74
2023/04/25 10:48:52;;;;;;;5.70;1.73;;;10.50;99.90;;;;;;5051963;28;20058;-75
2023/04/25 10:51:32;;;;;;;4.50;2.00;;;10.70;99.90;;;;;;5052448;28;20048;-74
2023/04/25 10:54:00;;;;;;;5.60;1.60;;;10.90;99.90;;;;;;5051393;28;20495;-75
2023/04/25 10:56:27;;;;;;;5.35;2.00;;;11.00;99.90;;;;;;5052112;28;20053;-75
2023/04/25 10:59:24;;;;;;;5.60;1.40;;;10.90;99.90;;;;;;5050104;28;20025;-74
2023/04/25 11:01:54;;;;;;;5.72;1.98;;;10.90;99.90;;;;;;5046795;28;20044;-75
2023/04/25 11:04:30;;;;;;;7.50;2.17;;;10.90;99.90;;;;;;5051987;28;20032;-75
2023/04/25 11:07:13;;;;;;;7.35;1.80;;;10.90;99.90;;;;;;5051423;28;20446;-74
2023/04/25 11:09:40;;;;;;;5.20;1.80;;;11.00;99.90;;;;;;5052205;28;20450;-74
2023/04/25 11:12:08;;;;;;;4.05;1.38;;;11.10;99.90;;;;;;5051343;28;20024;-75
2023/04/25 11:14:35;;;;;;;9.50;2.10;;;10.90;99.90;;;;;;5051625;28;20032;-73
2023/04/25 11:17:02;;;;;;;19.60;2.42;;;10.80;99.90;;;;;;5051137;28;20362;-74
2023/04/25 11:19:29;;;;;;;6.93;1.85;;;10.70;99.90;;;;;;5051477;28;20025;-73
2023/04/25 11:21:59;;;;;;;2.85;1.83;;;10.70;99.90;;;;;;5050621;28;20044;-73
2023/04/25 11:24:34;;;;;;;4.75;1.70;;;10.80;99.90;;;;;;5051675;28;20121;-74
2023/04/25 11:27:02;;;;;;;6.28;1.95;;;10.90;99.90;;;;;;5050813;28;20502;-74
2023/04/25 11:29:30;;;;;;;3.17;1.48;;;11.10;99.90;;;;;;5051111;28;20423;-73
2023/04/25 11:31:59;;;;;;;4.53;1.70;;;11.20;99.90;;;;;;5050910;28;20114;-73
2023/04/25 11:34:26;;;;;;;4.22;1.60;;;11.30;99.90;;;;;;5051420;28;20029;-74
2023/04/25 11:36:53;;;;;;;6.47;1.70;;;11.30;99.90;;;;;;5050583;28;20322;-75
2023/04/25 11:39:19;;;;;;;4.18;1.58;;;11.40;99.90;;;;;;5051300;28;20021;-74
2023/04/25 11:41:46;;;;;;;5.57;1.42;;;11.50;99.90;;;;;;5051170;28;20040;-74
2023/04/25 11:44:15;;;;;;;2.53;1.40;;;11.60;99.90;;;;;;5051034;28;20346;-74
2023/04/25 11:46:40;;;;;;;5.45;1.40;;;11.70;99.90;;;;;;5050865;28;20021;-73
2023/04/25 11:49:06;;;;;;;2.85;1.67;;;11.70;99.90;;;;;;5050528;28;20471;-74
2023/04/25 11:51:39;;;;;;;6.75;1.70;;;11.70;99.90;;;;;;5050969;28;20027;-74
2023/04/25 11:54:05;;;;;;;4.68;1.73;;;11.70;99.90;;;;;;5050531;28;20021;-74
2023/04/25 11:56:32;;;;;;;3.78;2.10;;;11.60;99.90;;;;;;5050782;28;20021;-74
2023/04/25 11:58:59;;;;;;;5.57;1.92;;;11.60;99.90;;;;;;5050488;28;20021;-73
2023/04/25 12:01:36;;;;;;;6.47;1.90;;;11.50;99.90;;;;;;5051299;28;20032;-75
2023/04/25 12:04:11;;;;;;;6.28;2.05;;;11.30;99.90;;;;;;5050706;28;20116;-74
2023/04/25 12:06:41;;;;;;;8.18;2.28;;;11.00;99.90;;;;;;5051016;28;20024;-74
2023/04/25 12:09:13;;;;;;;6.90;2.05;;;10.70;99.90;;;;;;5050772;28;20032;-74
2023/04/25 12:11:52;;;;;;;7.95;1.83;;;10.70;99.90;;;;;;5051831;28;20110;-74
2023/04/25 12:14:36;;;;;;;7.13;2.20;;;10.50;99.90;;;;;;5051095;28;20032;-74
2023/04/25 12:17:03;;;;;;;4.50;2.13;;;10.60;99.90;;;;;;5050169;28;20446;-74
2023/04/25 12:19:36;;;;;;;4.47;2.40;;;10.60;99.90;;;;;;5050655;28;20107;-75
2023/04/25 12:22:03;;;;;;;4.15;1.88;;;10.50;99.90;;;;;;5050008;28;20028;-73
2023/04/25 12:24:29;;;;;;;4.88;2.00;;;10.60;99.90;;;;;;5050675;28;20041;-73
2023/04/25 12:27:03;;;;;;;6.43;2.13;;;10.60;99.90;;;;;;5048815;28;20029;-74
2023/04/25 12:29:32;;;;;;;5.03;2.15;;;10.80;99.90;;;;;;5050502;28;20200;-74
2023/04/25 12:31:58;;;;;;;6.10;2.00;;;10.70;99.90;;;;;;5050124;28;20029;-74
2023/04/25 12:34:25;;;;;;;10.27;2.67;;;10.70;99.90;;;;;;5050524;28;20020;-74
2023/04/25 12:36:51;;;;;;;5.35;2.20;;;10.70;99.90;;;;;;5050059;28;20080;-74
2023/04/25 12:39:22;;;;;;;7.28;2.10;;;10.70;99.90;;;;;;5050448;28;20354;-74
2023/04/25 12:41:48;;;;;;;9.35;2.85;;;10.80;99.90;;;;;;5050708;28;20032;-74
2023/04/25 12:44:14;;;;;;;4.32;2.58;;;10.70;99.90;;;;;;5050079;28;20096;-73
2023/04/25 12:46:41;;;;;;;7.10;2.50;;;10.80;99.90;;;;;;5050298;28;20116;-73
2023/04/25 12:49:08;;;;;;;5.57;2.20;;;10.60;99.90;;;;;;5049734;28;20397;-73
2023/04/25 12:51:35;;;;;;;5.32;2.28;;;10.50;99.90;;;;;;5050447;28;20021;-73